Latest Coastal Weather Observations for Nullarbor

IDS60701

Issued at 5:35 pm CDT Tuesday 21 October 2014 (issued every 10 minutes, with the page automatically refreshed every 10 minutes)

About coastal observations | Map of coastal stations | Coastal observations for SA | Marine services | Other Formats
Station Details ID: 018106 Name: NULLARBOR Lat: -31.45 Lon: 130.90 Height: 64.0 m
Data from the previous 72 hours. | See also: Recent months at Nullarbor
Date/Time
CDT
Temp

°C
Wind Pressure Rain
since 9am
mm
Weather Cloud Vis
km
Sea
Height
m
Swell
Dir
 
Speed
knots
Gust
knots
hPa Trend Height
m
Period
s
Dir
21/05:30pm 25.2 SSW 17 22 1018.6 - 0.0 - - 10 - - - -
21/05:00pm 26.0 SSW 17 22 1018.3 - 0.0 - - 10 - - - -
21/04:30pm 26.8 SSW 17 20 1018.1 - 0.0 - - 10 - - - -
21/04:00pm 26.7 SSW 17 21 1017.9 - 0.0 - - 10 - - - -
21/03:30pm 28.2 SSW 18 23 1017.7 - 0.0 - - 10 - - - -
21/03:00pm 29.5 SSW 17 24 1017.6 - 0.0 - - 10 - - - -
21/02:30pm 29.0 S 17 21 1017.5 - 0.0 - - 10 - - - -
21/02:00pm 29.9 SSW 17 22 1017.6 - 0.0 - - 10 - - - -
21/01:30pm 29.4 SSW 17 22 1017.7 - 0.0 - - 10 - - - -
21/01:00pm 28.6 SSW 20 24 1017.8 - 0.0 - - 10 - - - -
21/12:30pm 27.6 SSW 17 21 1017.8 - 0.0 - - 10 - - - -
21/12:00pm 26.4 SSW 17 20 1017.9 - 0.0 - - 10 - - - -
21/11:30am 26.0 SSW 14 17 1017.7 - 0.0 - - 10 - - - -
21/11:00am 24.7 SW 14 20 1017.5 - 0.0 - - 10 - - - -
21/10:30am 24.1 SW 13 16 1017.3 - 0.0 - - 10 - - - -
21/10:00am 22.4 SW 11 14 1017.2 - 0.0 - - 10 - - - -
21/09:30am 21.8 SSW 13 17 1017.3 - 0.0 - - 10 - - - -
21/09:00am 23.3 SW 13 15 1016.4 - 0.6 - - 10 - - - -
21/08:30am 22.5 SSW 7 10 1016.1 - 0.6 - - 10 - - - -
21/08:00am 20.2 S 7 8 1016.1 - 0.6 - - 10 - - - -
21/07:30am 18.2 S 7 9 1015.9 - 0.6 - - 10 - - - -
21/07:00am 18.5 SW 9 12 1015.2 - 0.6 - - 10 - - - -
21/06:30am 18.9 SW 7 8 1014.7 - 0.6 - - 10 - - - -
21/06:00am 19.9 W 11 14 1015.1 - 0.6 Recent precip. - 10 - - - -
21/05:41am 21.5 W 13 15 1014.9 - 0.6 - Partly cloudy 10 - - - -
21/05:30am 22.4 NW 5 9 1013.5 - 0.6 - Partly cloudy 10 - - - -
21/05:25am 22.4 NW 5 11 1013.6 - 0.6 - Partly cloudy 10 - - - -
21/05:00am 21.5 ESE 7 11 1012.7 - 0.0 - - 10 - - - -
21/04:30am 22.0 ESE 5 7 1014.2 - 0.0 - - 10 - - - -
21/04:00am 22.2 W 14 18 1015.0 - 0.0 - - 10 - - - -
21/03:55am 21.7 W 14 19 1014.8 - 0.0 - - 10 - - - -
21/03:30am 20.6 SE 6 8 1012.7 - 0.0 - - 10 - - - -
21/03:00am 20.8 SW 6 10 1014.1 - 0.0 - - 10 - - - -
21/02:30am 21.1 WNW 8 11 1014.8 - 0.0 - - 10 - - - -
21/02:00am 21.3 ESE 8 10 1014.1 - 0.0 - - 10 - - - -
21/01:30am 21.1 SW 3 7 1014.9 - 0.0 - - 10 - - - -
21/01:00am 22.1 S 7 11 1015.4 - 0.0 - - 10 - - - -
21/12:30am 22.8 E 11 14 1014.9 - 0.0 - - 10 - - - -
21/12:00am 22.1 ESE 14 19 1014.6 - 0.0 - - 10 - - - -
 
Date/Time
CDT
Temp

°C
Wind Pressure Rain
since 9am
mm
Weather Cloud Vis
km
Sea
Height
m
Swell
Dir
 
Speed
knots
Gust
knots
hPa Trend Height
m
Period
s
Dir
20/11:30pm 20.7 ESE 13 17 1015.3 - 0.0 - - 10 - - - -
20/11:00pm 19.6 ESE 9 12 1015.7 - 0.0 - - 10 - - - -
20/10:30pm 19.8 SE 11 15 1015.2 - 0.0 - - 10 - - - -
20/10:00pm 22.5 SE 8 11 1014.5 - 0.0 - - 10 - - - -
20/09:30pm 22.3 SE 12 17 1014.0 - 0.0 - - 10 - - - -
20/09:00pm 21.7 SE 11 14 1014.5 - 0.0 - - 10 - - - -
20/08:30pm 21.8 SSW 8 11 1015.4 - 0.0 - - 10 - - - -
20/08:00pm 22.1 S 10 12 1015.2 - 0.0 - - 10 - - - -
20/07:30pm 23.5 SW 10 12 1014.7 - 0.0 - - 10 - - - -
20/07:00pm 24.1 S 9 11 1014.4 - 0.0 - - 10 - - - -
20/06:30pm 25.2 SSE 11 13 1013.3 - 0.0 - - 10 - - - -
20/06:00pm 26.5 S 10 12 1013.7 - 0.0 - - 10 - - - -
20/05:30pm 26.7 S 11 13 1013.5 - 0.0 - - 10 - - - -
20/05:00pm 28.6 S 12 16 1013.6 - 0.0 - - 10 - - - -
20/04:30pm 29.9 SW 11 14 1014.7 - 0.0 - - 10 - - - -
20/04:00pm 30.7 SW 14 19 1015.1 - 0.0 - - 10 - - - -
20/03:30pm 32.3 W 7 15 1014.8 - 0.0 - - 10 - - - -
20/03:00pm 31.6 S 6 11 1014.8 - 0.0 - - 10 - - - -
20/02:30pm 31.6 SSW 7 11 1015.1 - 0.0 - - 10 - - - -
20/02:00pm 30.4 WSW 7 10 1015.7 - 0.0 - - 10 - - - -
20/01:30pm 30.4 WSW 5 10 1016.2 - 0.0 - - 10 - - - -
20/01:00pm 29.3 S 4 7 1016.4 - 0.0 - - 10 - - - -
20/12:30pm 28.6 SE 5 7 1016.7 - 0.0 - - 10 - - - -
20/12:00pm 28.1 ESE 11 14 1016.3 - 0.0 - - 10 - - - -
20/11:30am 26.6 SW 6 9 1016.7 - 0.0 - - 10 - - - -
20/11:00am 26.6 SW 5 10 1017.0 - 0.0 - - 10 - - - -
20/10:30am 25.4 W 7 9 1017.1 - 0.0 - - 10 - - - -
20/10:00am 24.7 E 3 6 1016.9 - 0.0 - - 10 - - - -
20/09:30am 22.2 W 10 15 1017.6 - 0.0 - - 10 - - - -
20/09:00am 22.9 NW 9 17 1017.8 - 0.0 - - 10 - - - -
20/08:59am 22.9 NW 9 16 1017.7 - 0.0 - - 10 - - - -
20/08:30am 21.1 NNE 7 10 1015.7 - 0.0 - - 10 - - - -
20/08:00am 21.6 ENE 13 15 1015.1 - 0.0 - - 10 - - - -
20/07:30am 22.1 N 13 15 1015.8 - 0.0 - - 10 - - - -
20/07:00am 21.1 NE 16 22 1013.9 - 0.0 - - 10 - - - -
20/06:30am 20.5 NE 15 20 1013.5 - 0.0 - - 10 - - - -
20/06:00am 19.0 NE 14 18 1013.5 - 0.0 - - 10 - - - -
20/05:30am 18.1 NE 14 17 1013.4 - 0.0 - - 10 - - - -
20/05:00am 15.0 ENE 12 14 1013.2 - 0.0 - - 10 - - - -
20/04:30am 12.9 ENE 12 13 1013.3 - 0.0 - - 10 - - - -
20/04:00am 11.4 E 10 11 1013.5 - 0.0 - - 8 - - - -
20/03:30am 11.8 SE 9 11 1013.7 - 0.0 - - - - - - -
20/03:00am 12.3 SE 8 9 1013.8 - 0.0 - - - - - - -
20/02:30am 12.5 SE 8 9 1014.1 - 0.0 - - - - - - -
20/02:00am 13.3 SSE 8 9 1014.3 - 0.0 - - - - - - -
20/01:30am 13.3 SSE 9 11 1014.7 - 0.0 - - - - - - -
20/01:00am 13.6 SSE 9 10 1014.9 - 0.0 - - 9 - - - -
20/12:30am 13.7 SSE 8 9 1015.1 - 0.0 - - 10 - - - -
20/12:00am 14.9 ESE 8 9 1015.1 - 0.0 - - 10 - - - -
 
Date/Time
CDT
Temp

°C
Wind Pressure Rain
since 9am
mm
Weather Cloud Vis
km
Sea
Height
m
Swell
Dir
 
Speed
knots
Gust
knots
hPa Trend Height
m
Period
s
Dir
19/11:30pm 16.1 SE 10 12 1015.3 - 0.0 - - 10 - - - -
19/11:00pm 16.8 ESE 11 13 1015.7 - 0.0 - - 10 - - - -
19/10:30pm 17.5 ESE 12 14 1015.9 - 0.0 - - 10 - - - -
19/10:00pm 18.0 SE 12 15 1015.9 - 0.0 - - 10 - - - -
19/09:30pm 18.3 SE 13 17 1015.7 - 0.0 - - 10 - - - -
19/09:00pm 18.5 SE 14 17 1015.6 - 0.0 - - 10 - - - -
19/08:30pm 18.8 SE 13 18 1015.4 - 0.0 - - 10 - - - -
19/08:00pm 18.6 SSE 15 20 1015.3 - 0.0 - - 10 - - - -
19/07:30pm 19.2 SSE 14 19 1015.2 - 0.0 - - 10 - - - -
19/07:00pm 21.1 SSE 15 18 1015.1 - 0.0 - - 10 - - - -
19/06:30pm 22.5 SSE 16 20 1015.1 - 0.0 - - 10 - - - -
19/06:00pm 23.2 SSE 15 19 1015.1 - 0.0 - - 10 - - - -
19/05:30pm 24.2 SE 15 19 1014.7 - 0.0 - - 10 - - - -
19/05:00pm 24.4 SSE 15 18 1014.8 - 0.0 - - 10 - - - -
19/04:30pm 25.5 SE 14 17 1014.9 - 0.0 - - 10 - - - -
19/04:00pm 26.6 SE 13 16 1015.1 - 0.0 - - 10 - - - -
19/03:30pm 27.4 SSE 13 17 1015.0 - 0.0 - - 10 - - - -
19/03:00pm 29.7 SE 10 18 1015.0 - 0.0 - - 10 - - - -
19/02:30pm 29.2 ESE 6 10 1015.3 - 0.0 - - 10 - - - -
19/02:00pm 28.1 E 8 12 1015.5 - 0.0 - - 10 - - - -
19/01:30pm 25.8 ESE 11 13 1015.9 - 0.0 - - 10 - - - -
19/01:00pm 24.0 SE 13 15 1016.2 - 0.0 - - 10 - - - -
19/12:30pm 23.9 SSE 14 17 1016.4 - 0.0 - - 10 - - - -
19/12:00pm 24.9 SSE 12 18 1016.6 - 0.0 - - 10 - - - -
19/11:30am 26.2 SE 10 14 1016.7 - 0.0 - - 10 - - - -
19/11:00am 24.9 SE 10 13 1016.6 - 0.0 - - 10 - - - -
19/10:30am 23.7 SSE 11 15 1016.6 - 0.0 - - 10 - - - -
19/10:00am 22.7 SSE 12 15 1016.6 - 0.0 - - 10 - - - -
19/09:30am 22.6 SSE 11 13 1016.4 - 0.0 - - 10 - - - -
19/09:00am 22.2 S 10 13 1016.5 - 0.0 - - 10 - - - -
19/08:30am 21.9 SE 8 10 1016.1 - 0.0 - - 10 - - - -
19/08:00am 21.0 N 7 9 1015.5 - 0.0 - - 10 - - - -
19/07:40am 18.1 WSW 17 34 1014.8 - 0.0 - - 10 - - - -
19/07:30am 14.5 NE 11 14 1013.9 - 0.0 - - 10 - - - -
19/07:00am 12.8 NNE 12 14 1013.7 - 0.0 - - 10 - - - -
19/06:30am 12.1 NE 11 13 1013.3 - 0.0 - - 10 - - - -
19/06:00am 12.3 NE 11 13 1013.1 - 0.0 - - 10 - - - -
19/05:30am 12.9 ENE 10 11 1012.9 - 0.0 - - - - - - -
19/05:00am 12.8 E 7 9 1013.0 - 0.0 - - - - - - -
19/04:30am 12.8 E 7 8 1013.2 - 0.0 - - - - - - -
19/04:00am 13.5 ESE 8 8 1013.4 - 0.0 - - - - - - -
19/03:30am 13.6 SE 8 9 1013.9 - 0.0 - - - - - - -
19/03:00am 14.3 ESE 8 9 1014.1 - 0.0 - - - - - - -
19/02:30am 14.9 SE 8 9 1014.4 - 0.0 - - - - - - -
19/02:00am 15.7 SE 9 11 1014.7 - 0.0 - - - - - - -
19/01:30am 16.1 SSE 9 11 1015.0 - 0.0 - - - - - - -
19/01:00am 16.4 SSE 10 12 1015.3 - 0.0 - - - - - - -
19/12:30am 16.6 SE 10 13 1015.4 - 0.0 - - - - - - -
19/12:00am 16.7 SSE 9 12 1015.8 - 0.0 - - - - - - -
 
Date/Time
CDT
Temp

°C
Wind Pressure Rain
since 9am
mm
Weather Cloud Vis
km
Sea
Height
m
Swell
Dir
 
Speed
knots
Gust
knots
hPa Trend Height
m
Period
s
Dir
18/11:30pm 16.8 SSE 9 12 1015.7 - 0.0 - - - - - - -
18/11:00pm 16.9 SSE 10 13 1015.8 - 0.0 - - - - - - -
18/10:30pm 16.8 S 11 13 1016.1 - 0.0 - - - - - - -
18/10:00pm 17.1 S 11 13 1016.6 - 0.0 - - - - - - -
18/09:30pm 17.4 S 12 16 1016.1 - 0.0 - - - - - - -
18/09:00pm 17.6 SSE 11 14 1015.8 - 0.0 - - - - - - -
18/08:30pm 17.9 SSE 10 14 1015.8 - 0.0 - - - - - - -
18/08:00pm 18.4 S 12 16 1015.7 - 0.0 - - 10 - - - -
18/07:30pm 19.1 SSE 14 19 1015.2 - 0.0 - - 10 - - - -
18/07:00pm 19.6 SSE 15 19 1015.0 - 0.0 - - 10 - - - -
18/06:30pm 20.3 S 16 19 1014.7 - 0.0 - - 10 - - - -
18/06:00pm 20.9 S 14 18 1014.6 - 0.0 - - 10 - - - -

Other Formats:

Comma delimited format used in spreadsheet applications
http://www.bom.gov.au/fwo/IDS60701/IDS60701.94651.axf

JavaScript Object Notation format (JSON) in row-major order
http://www.bom.gov.au/fwo/IDS60701/IDS60701.94651.json